sensor_id;sensor_type;location;lat;lon;timestamp;P1;durP1;ratioP1;P2;durP2;ratioP2
31786;SDS011;18356;52.380;9.820;2023-02-10T00:02:13;67.93;;;30.40;;
31786;SDS011;18356;52.380;9.820;2023-02-10T00:04:39;74.97;;;32.27;;
31786;SDS011;18356;52.380;9.820;2023-02-10T00:07:05;66.20;;;31.53;;
31786;SDS011;18356;52.380;9.820;2023-02-10T00:09:31;71.47;;;30.27;;
31786;SDS011;18356;52.380;9.820;2023-02-10T00:11:57;76.07;;;30.73;;
31786;SDS011;18356;52.380;9.820;2023-02-10T00:14:26;71.47;;;30.67;;
31786;SDS011;18356;52.380;9.820;2023-02-10T00:16:53;73.40;;;30.77;;
31786;SDS011;18356;52.380;9.820;2023-02-10T00:19:20;69.43;;;31.80;;
31786;SDS011;18356;52.380;9.820;2023-02-10T00:21:46;70.17;;;32.53;;
31786;SDS011;18356;52.380;9.820;2023-02-10T00:24:12;72.77;;;32.00;;
31786;SDS011;18356;52.380;9.820;2023-02-10T00:26:38;73.93;;;31.90;;
31786;SDS011;18356;52.380;9.820;2023-02-10T00:29:04;75.73;;;33.33;;
31786;SDS011;18356;52.380;9.820;2023-02-10T00:31:30;71.70;;;32.90;;
31786;SDS011;18356;52.380;9.820;2023-02-10T00:33:56;65.13;;;31.53;;
31786;SDS011;18356;52.380;9.820;2023-02-10T00:36:22;65.20;;;30.83;;
31786;SDS011;18356;52.380;9.820;2023-02-10T00:38:49;67.00;;;30.27;;
31786;SDS011;18356;52.380;9.820;2023-02-10T00:41:16;68.00;;;31.70;;
31786;SDS011;18356;52.380;9.820;2023-02-10T00:43:42;68.37;;;32.87;;
31786;SDS011;18356;52.380;9.820;2023-02-10T00:46:09;78.47;;;33.00;;
31786;SDS011;18356;52.380;9.820;2023-02-10T00:48:36;64.90;;;31.53;;
31786;SDS011;18356;52.380;9.820;2023-02-10T00:51:02;68.23;;;32.77;;
31786;SDS011;18356;52.380;9.820;2023-02-10T00:53:28;70.77;;;32.23;;
31786;SDS011;18356;52.380;9.820;2023-02-10T00:55:55;63.83;;;31.77;;
31786;SDS011;18356;52.380;9.820;2023-02-10T00:58:21;66.87;;;31.70;;
31786;SDS011;18356;52.380;9.820;2023-02-10T01:00:47;64.20;;;32.07;;
31786;SDS011;18356;52.380;9.820;2023-02-10T01:03:13;72.57;;;32.83;;
31786;SDS011;18356;52.380;9.820;2023-02-10T01:05:39;67.77;;;32.40;;
31786;SDS011;18356;52.380;9.820;2023-02-10T01:08:05;68.70;;;30.83;;
31786;SDS011;18356;52.380;9.820;2023-02-10T01:10:32;69.30;;;31.17;;
31786;SDS011;18356;52.380;9.820;2023-02-10T01:13:00;68.90;;;32.27;;
31786;SDS011;18356;52.380;9.820;2023-02-10T01:15:26;73.37;;;32.43;;
31786;SDS011;18356;52.380;9.820;2023-02-10T01:17:52;68.40;;;32.60;;
31786;SDS011;18356;52.380;9.820;2023-02-10T01:20:18;68.27;;;30.77;;
31786;SDS011;18356;52.380;9.820;2023-02-10T01:22:44;68.90;;;31.03;;
31786;SDS011;18356;52.380;9.820;2023-02-10T01:25:10;76.63;;;33.17;;
31786;SDS011;18356;52.380;9.820;2023-02-10T01:27:36;72.07;;;32.13;;
31786;SDS011;18356;52.380;9.820;2023-02-10T01:30:02;68.77;;;31.13;;
31786;SDS011;18356;52.380;9.820;2023-02-10T01:32:28;66.23;;;29.80;;
31786;SDS011;18356;52.380;9.820;2023-02-10T01:34:54;66.10;;;30.37;;
31786;SDS011;18356;52.380;9.820;2023-02-10T01:37:20;59.40;;;29.33;;
31786;SDS011;18356;52.380;9.820;2023-02-10T01:39:46;62.27;;;30.23;;
31786;SDS011;18356;52.380;9.820;2023-02-10T01:42:13;63.00;;;30.20;;
31786;SDS011;18356;52.380;9.820;2023-02-10T01:47:05;64.17;;;29.77;;
31786;SDS011;18356;52.380;9.820;2023-02-10T01:49:33;59.60;;;29.60;;
31786;SDS011;18356;52.380;9.820;2023-02-10T01:52:05;60.37;;;30.10;;
31786;SDS011;18356;52.380;9.820;2023-02-10T01:54:37;64.40;;;30.97;;
31786;SDS011;18356;52.380;9.820;2023-02-10T01:57:04;59.07;;;29.90;;
31786;SDS011;18356;52.380;9.820;2023-02-10T01:59:32;63.17;;;29.70;;
31786;SDS011;18356;52.380;9.820;2023-02-10T02:01:59;65.97;;;30.07;;
31786;SDS011;18356;52.380;9.820;2023-02-10T02:04:31;62.07;;;30.10;;
31786;SDS011;18356;52.380;9.820;2023-02-10T02:06:57;67.73;;;29.37;;
31786;SDS011;18356;52.380;9.820;2023-02-10T02:09:23;61.60;;;30.73;;
31786;SDS011;18356;52.380;9.820;2023-02-10T02:11:57;66.83;;;31.20;;
31786;SDS011;18356;52.380;9.820;2023-02-10T02:14:38;63.30;;;29.07;;
31786;SDS011;18356;52.380;9.820;2023-02-10T02:17:17;68.47;;;29.87;;
31786;SDS011;18356;52.380;9.820;2023-02-10T02:22:27;65.70;;;30.30;;
31786;SDS011;18356;52.380;9.820;2023-02-10T02:25:09;64.50;;;29.87;;
31786;SDS011;18356;52.380;9.820;2023-02-10T02:33:04;63.20;;;29.30;;
31786;SDS011;18356;52.380;9.820;2023-02-10T02:35:39;60.43;;;29.83;;
31786;SDS011;18356;52.380;9.820;2023-02-10T02:38:07;64.37;;;31.10;;
31786;SDS011;18356;52.380;9.820;2023-02-10T02:40:33;64.53;;;30.33;;
31786;SDS011;18356;52.380;9.820;2023-02-10T02:42:59;64.23;;;30.30;;
31786;SDS011;18356;52.380;9.820;2023-02-10T02:45:26;60.90;;;28.63;;
31786;SDS011;18356;52.380;9.820;2023-02-10T02:47:59;62.67;;;30.17;;
31786;SDS011;18356;52.380;9.820;2023-02-10T02:58:11;67.37;;;30.37;;
31786;SDS011;18356;52.380;9.820;2023-02-10T03:00:39;61.87;;;29.63;;
31786;SDS011;18356;52.380;9.820;2023-02-10T03:03:05;61.20;;;29.93;;
31786;SDS011;18356;52.380;9.820;2023-02-10T03:05:32;67.53;;;30.87;;
31786;SDS011;18356;52.380;9.820;2023-02-10T03:07:58;63.67;;;31.40;;
31786;SDS011;18356;52.380;9.820;2023-02-10T03:10:24;65.57;;;29.27;;
31786;SDS011;18356;52.380;9.820;2023-02-10T03:12:50;59.73;;;28.77;;
31786;SDS011;18356;52.380;9.820;2023-02-10T03:15:16;63.53;;;28.53;;
31786;SDS011;18356;52.380;9.820;2023-02-10T03:17:42;60.10;;;28.80;;
31786;SDS011;18356;52.380;9.820;2023-02-10T03:20:08;57.30;;;26.97;;
31786;SDS011;18356;52.380;9.820;2023-02-10T03:22:34;61.03;;;27.90;;
31786;SDS011;18356;52.380;9.820;2023-02-10T03:25:00;59.77;;;28.03;;
31786;SDS011;18356;52.380;9.820;2023-02-10T03:27:26;61.80;;;28.17;;
31786;SDS011;18356;52.380;9.820;2023-02-10T03:29:52;62.20;;;28.80;;
31786;SDS011;18356;52.380;9.820;2023-02-10T03:32:19;60.17;;;27.00;;
31786;SDS011;18356;52.380;9.820;2023-02-10T03:34:45;56.47;;;27.17;;
31786;SDS011;18356;52.380;9.820;2023-02-10T03:37:11;62.13;;;27.60;;
31786;SDS011;18356;52.380;9.820;2023-02-10T03:39:37;57.27;;;27.43;;
31786;SDS011;18356;52.380;9.820;2023-02-10T03:42:04;62.97;;;28.37;;
31786;SDS011;18356;52.380;9.820;2023-02-10T03:44:30;52.43;;;25.90;;
31786;SDS011;18356;52.380;9.820;2023-02-10T03:46:56;49.97;;;26.07;;
31786;SDS011;18356;52.380;9.820;2023-02-10T03:49:22;61.00;;;27.93;;
31786;SDS011;18356;52.380;9.820;2023-02-10T03:51:48;61.67;;;30.13;;
31786;SDS011;18356;52.380;9.820;2023-02-10T03:54:14;59.20;;;28.30;;
31786;SDS011;18356;52.380;9.820;2023-02-10T03:56:40;62.13;;;28.97;;
31786;SDS011;18356;52.380;9.820;2023-02-10T03:59:06;53.23;;;26.63;;
31786;SDS011;18356;52.380;9.820;2023-02-10T04:01:32;54.97;;;27.00;;
31786;SDS011;18356;52.380;9.820;2023-02-10T04:03:58;58.93;;;27.03;;
31786;SDS011;18356;52.380;9.820;2023-02-10T04:06:24;57.23;;;27.50;;
31786;SDS011;18356;52.380;9.820;2023-02-10T04:08:50;60.97;;;26.93;;
31786;SDS011;18356;52.380;9.820;2023-02-10T04:11:16;53.07;;;25.87;;
31786;SDS011;18356;52.380;9.820;2023-02-10T04:13:44;58.03;;;25.37;;
31786;SDS011;18356;52.380;9.820;2023-02-10T04:16:11;56.17;;;24.80;;
31786;SDS011;18356;52.380;9.820;2023-02-10T04:18:37;54.33;;;25.10;;
31786;SDS011;18356;52.380;9.820;2023-02-10T04:21:04;59.13;;;26.73;;
31786;SDS011;18356;52.380;9.820;2023-02-10T04:23:30;54.13;;;25.33;;
31786;SDS011;18356;52.380;9.820;2023-02-10T04:25:56;52.43;;;24.90;;
31786;SDS011;18356;52.380;9.820;2023-02-10T04:28:22;50.50;;;25.13;;
31786;SDS011;18356;52.380;9.820;2023-02-10T04:30:55;53.80;;;24.17;;
31786;SDS011;18356;52.380;9.820;2023-02-10T04:33:21;53.87;;;24.97;;
31786;SDS011;18356;52.380;9.820;2023-02-10T04:35:49;55.53;;;24.43;;
31786;SDS011;18356;52.380;9.820;2023-02-10T04:38:16;58.83;;;25.20;;
31786;SDS011;18356;52.380;9.820;2023-02-10T04:40:43;52.43;;;25.33;;
31786;SDS011;18356;52.380;9.820;2023-02-10T04:43:09;52.87;;;25.67;;
31786;SDS011;18356;52.380;9.820;2023-02-10T04:45:36;53.60;;;24.63;;
31786;SDS011;18356;52.380;9.820;2023-02-10T04:48:02;52.70;;;24.93;;
31786;SDS011;18356;52.380;9.820;2023-02-10T04:50:28;59.07;;;25.63;;
31786;SDS011;18356;52.380;9.820;2023-02-10T04:52:54;56.10;;;24.70;;
31786;SDS011;18356;52.380;9.820;2023-02-10T04:55:20;53.93;;;24.77;;
31786;SDS011;18356;52.380;9.820;2023-02-10T04:57:46;59.57;;;25.20;;
31786;SDS011;18356;52.380;9.820;2023-02-10T05:00:12;54.90;;;24.73;;
31786;SDS011;18356;52.380;9.820;2023-02-10T05:02:38;58.33;;;26.87;;
31786;SDS011;18356;52.380;9.820;2023-02-10T05:05:04;53.37;;;25.40;;
31786;SDS011;18356;52.380;9.820;2023-02-10T05:07:30;58.57;;;25.13;;
31786;SDS011;18356;52.380;9.820;2023-02-10T05:09:56;54.10;;;25.03;;
31786;SDS011;18356;52.380;9.820;2023-02-10T05:12:22;54.03;;;26.33;;
31786;SDS011;18356;52.380;9.820;2023-02-10T05:14:48;61.40;;;27.37;;
31786;SDS011;18356;52.380;9.820;2023-02-10T05:17:14;58.87;;;26.20;;
31786;SDS011;18356;52.380;9.820;2023-02-10T05:19:40;58.50;;;28.40;;
31786;SDS011;18356;52.380;9.820;2023-02-10T05:22:06;60.67;;;28.90;;
31786;SDS011;18356;52.380;9.820;2023-02-10T05:24:33;66.77;;;30.90;;
31786;SDS011;18356;52.380;9.820;2023-02-10T05:26:59;66.20;;;30.00;;
31786;SDS011;18356;52.380;9.820;2023-02-10T05:29:25;59.43;;;30.47;;
31786;SDS011;18356;52.380;9.820;2023-02-10T05:31:51;64.63;;;29.20;;
31786;SDS011;18356;52.380;9.820;2023-02-10T05:34:16;66.53;;;30.63;;
31786;SDS011;18356;52.380;9.820;2023-02-10T05:36:42;66.57;;;29.03;;
31786;SDS011;18356;52.380;9.820;2023-02-10T05:39:09;66.90;;;29.87;;
31786;SDS011;18356;52.380;9.820;2023-02-10T05:41:54;58.00;;;28.87;;
31786;SDS011;18356;52.380;9.820;2023-02-10T05:44:22;61.10;;;29.67;;
31786;SDS011;18356;52.380;9.820;2023-02-10T05:46:48;60.80;;;30.03;;
31786;SDS011;18356;52.380;9.820;2023-02-10T05:49:14;60.57;;;29.60;;
31786;SDS011;18356;52.380;9.820;2023-02-10T05:51:40;66.63;;;31.13;;
31786;SDS011;18356;52.380;9.820;2023-02-10T05:54:07;55.77;;;28.37;;
31786;SDS011;18356;52.380;9.820;2023-02-10T05:56:33;63.83;;;29.63;;
31786;SDS011;18356;52.380;9.820;2023-02-10T05:58:59;64.90;;;30.30;;
31786;SDS011;18356;52.380;9.820;2023-02-10T06:01:24;64.13;;;29.83;;
31786;SDS011;18356;52.380;9.820;2023-02-10T06:03:50;66.57;;;30.20;;
31786;SDS011;18356;52.380;9.820;2023-02-10T06:06:16;69.40;;;29.53;;
31786;SDS011;18356;52.380;9.820;2023-02-10T06:08:42;63.87;;;28.47;;
31786;SDS011;18356;52.380;9.820;2023-02-10T06:11:08;62.70;;;29.37;;
31786;SDS011;18356;52.380;9.820;2023-02-10T06:13:34;60.80;;;28.40;;
31786;SDS011;18356;52.380;9.820;2023-02-10T06:16:01;63.37;;;28.33;;
31786;SDS011;18356;52.380;9.820;2023-02-10T06:18:27;61.20;;;28.00;;
31786;SDS011;18356;52.380;9.820;2023-02-10T06:20:53;60.87;;;27.47;;
31786;SDS011;18356;52.380;9.820;2023-02-10T06:23:19;62.83;;;27.43;;
31786;SDS011;18356;52.380;9.820;2023-02-10T06:25:46;72.07;;;28.40;;
31786;SDS011;18356;52.380;9.820;2023-02-10T06:28:12;66.63;;;30.77;;
31786;SDS011;18356;52.380;9.820;2023-02-10T06:30:39;67.37;;;31.70;;
31786;SDS011;18356;52.380;9.820;2023-02-10T06:33:05;65.50;;;30.60;;
31786;SDS011;18356;52.380;9.820;2023-02-10T06:35:31;62.13;;;29.00;;
31786;SDS011;18356;52.380;9.820;2023-02-10T06:37:57;64.77;;;28.90;;
31786;SDS011;18356;52.380;9.820;2023-02-10T06:40:23;73.47;;;29.53;;
31786;SDS011;18356;52.380;9.820;2023-02-10T06:42:49;69.73;;;30.13;;
31786;SDS011;18356;52.380;9.820;2023-02-10T06:45:15;73.60;;;28.50;;
31786;SDS011;18356;52.380;9.820;2023-02-10T06:47:41;63.90;;;28.00;;
31786;SDS011;18356;52.380;9.820;2023-02-10T06:50:07;70.17;;;29.37;;
31786;SDS011;18356;52.380;9.820;2023-02-10T06:52:34;68.27;;;30.27;;
31786;SDS011;18356;52.380;9.820;2023-02-10T06:55:02;63.83;;;29.13;;
31786;SDS011;18356;52.380;9.820;2023-02-10T06:57:29;77.60;;;31.27;;
31786;SDS011;18356;52.380;9.820;2023-02-10T06:59:55;79.63;;;35.23;;
31786;SDS011;18356;52.380;9.820;2023-02-10T07:02:23;75.20;;;35.53;;
31786;SDS011;18356;52.380;9.820;2023-02-10T07:04:49;79.13;;;34.33;;
31786;SDS011;18356;52.380;9.820;2023-02-10T07:07:15;75.97;;;32.90;;
31786;SDS011;18356;52.380;9.820;2023-02-10T07:09:41;75.17;;;34.40;;
31786;SDS011;18356;52.380;9.820;2023-02-10T07:12:07;71.20;;;31.20;;
31786;SDS011;18356;52.380;9.820;2023-02-10T07:14:33;67.87;;;29.60;;
31786;SDS011;18356;52.380;9.820;2023-02-10T07:16:59;67.43;;;28.67;;
31786;SDS011;18356;52.380;9.820;2023-02-10T07:19:25;69.63;;;28.97;;
31786;SDS011;18356;52.380;9.820;2023-02-10T07:21:52;60.33;;;28.33;;
31786;SDS011;18356;52.380;9.820;2023-02-10T07:24:18;69.20;;;29.27;;
31786;SDS011;18356;52.380;9.820;2023-02-10T07:26:44;67.73;;;28.93;;
31786;SDS011;18356;52.380;9.820;2023-02-10T07:29:10;74.03;;;30.57;;
31786;SDS011;18356;52.380;9.820;2023-02-10T07:31:36;62.47;;;28.57;;
31786;SDS011;18356;52.380;9.820;2023-02-10T07:34:02;62.90;;;29.77;;
31786;SDS011;18356;52.380;9.820;2023-02-10T07:36:28;65.87;;;28.30;;
31786;SDS011;18356;52.380;9.820;2023-02-10T07:38:54;60.00;;;28.47;;
31786;SDS011;18356;52.380;9.820;2023-02-10T07:41:20;62.93;;;28.00;;
31786;SDS011;18356;52.380;9.820;2023-02-10T07:43:46;65.43;;;28.30;;
31786;SDS011;18356;52.380;9.820;2023-02-10T07:46:12;67.17;;;28.90;;
31786;SDS011;18356;52.380;9.820;2023-02-10T07:48:39;62.20;;;29.17;;
31786;SDS011;18356;52.380;9.820;2023-02-10T07:51:06;68.60;;;28.43;;
31786;SDS011;18356;52.380;9.820;2023-02-10T07:53:32;62.10;;;27.17;;
31786;SDS011;18356;52.380;9.820;2023-02-10T07:55:58;62.80;;;27.93;;
31786;SDS011;18356;52.380;9.820;2023-02-10T07:58:25;63.50;;;28.57;;
31786;SDS011;18356;52.380;9.820;2023-02-10T08:00:51;61.60;;;28.20;;
31786;SDS011;18356;52.380;9.820;2023-02-10T08:03:17;66.07;;;28.27;;
31786;SDS011;18356;52.380;9.820;2023-02-10T08:05:43;55.23;;;26.37;;
31786;SDS011;18356;52.380;9.820;2023-02-10T08:08:12;55.77;;;27.03;;
31786;SDS011;18356;52.380;9.820;2023-02-10T08:10:38;62.57;;;27.23;;
31786;SDS011;18356;52.380;9.820;2023-02-10T08:13:04;59.07;;;26.93;;
31786;SDS011;18356;52.380;9.820;2023-02-10T08:15:30;60.00;;;28.37;;
31786;SDS011;18356;52.380;9.820;2023-02-10T08:17:57;63.43;;;27.97;;
31786;SDS011;18356;52.380;9.820;2023-02-10T08:20:23;66.07;;;27.17;;
31786;SDS011;18356;52.380;9.820;2023-02-10T08:22:53;69.30;;;28.03;;
31786;SDS011;18356;52.380;9.820;2023-02-10T08:25:19;62.70;;;27.67;;
31786;SDS011;18356;52.380;9.820;2023-02-10T08:27:45;59.37;;;27.13;;
31786;SDS011;18356;52.380;9.820;2023-02-10T08:30:11;64.40;;;28.80;;
31786;SDS011;18356;52.380;9.820;2023-02-10T08:32:37;61.63;;;28.43;;
31786;SDS011;18356;52.380;9.820;2023-02-10T08:35:04;63.60;;;27.60;;
31786;SDS011;18356;52.380;9.820;2023-02-10T08:37:30;61.47;;;28.20;;
31786;SDS011;18356;52.380;9.820;2023-02-10T08:39:56;57.47;;;27.47;;
31786;SDS011;18356;52.380;9.820;2023-02-10T08:42:23;67.73;;;27.93;;
31786;SDS011;18356;52.380;9.820;2023-02-10T08:44:49;60.43;;;28.10;;
31786;SDS011;18356;52.380;9.820;2023-02-10T08:47:15;58.50;;;28.03;;
31786;SDS011;18356;52.380;9.820;2023-02-10T08:49:41;69.73;;;29.10;;
31786;SDS011;18356;52.380;9.820;2023-02-10T08:52:08;69.83;;;28.90;;
31786;SDS011;18356;52.380;9.820;2023-02-10T08:54:34;61.93;;;28.30;;
31786;SDS011;18356;52.380;9.820;2023-02-10T08:57:00;58.93;;;28.93;;
31786;SDS011;18356;52.380;9.820;2023-02-10T08:59:26;64.60;;;28.23;;
31786;SDS011;18356;52.380;9.820;2023-02-10T09:01:52;61.30;;;28.57;;
31786;SDS011;18356;52.380;9.820;2023-02-10T09:04:18;65.20;;;29.63;;
31786;SDS011;18356;52.380;9.820;2023-02-10T09:06:44;63.23;;;29.70;;
31786;SDS011;18356;52.380;9.820;2023-02-10T09:09:11;63.70;;;31.70;;
31786;SDS011;18356;52.380;9.820;2023-02-10T09:11:38;61.13;;;31.77;;
31786;SDS011;18356;52.380;9.820;2023-02-10T09:14:04;58.97;;;31.93;;
31786;SDS011;18356;52.380;9.820;2023-02-10T09:16:30;58.37;;;29.97;;
31786;SDS011;18356;52.380;9.820;2023-02-10T09:18:56;65.20;;;31.47;;
31786;SDS011;18356;52.380;9.820;2023-02-10T09:21:22;60.80;;;29.67;;
31786;SDS011;18356;52.380;9.820;2023-02-10T09:23:49;65.60;;;31.33;;
31786;SDS011;18356;52.380;9.820;2023-02-10T09:26:15;60.60;;;30.33;;
31786;SDS011;18356;52.380;9.820;2023-02-10T09:28:41;64.73;;;31.97;;
31786;SDS011;18356;52.380;9.820;2023-02-10T09:31:07;65.50;;;30.30;;
31786;SDS011;18356;52.380;9.820;2023-02-10T09:33:34;62.17;;;31.77;;
31786;SDS011;18356;52.380;9.820;2023-02-10T09:36:02;63.77;;;29.53;;
31786;SDS011;18356;52.380;9.820;2023-02-10T09:38:28;61.43;;;30.60;;
31786;SDS011;18356;52.380;9.820;2023-02-10T09:54:14;62.77;;;30.83;;
31786;SDS011;18356;52.380;9.820;2023-02-10T09:56:41;63.47;;;30.00;;
31786;SDS011;18356;52.380;9.820;2023-02-10T09:59:10;60.53;;;30.10;;
31786;SDS011;18356;52.380;9.820;2023-02-10T10:01:48;60.73;;;31.27;;
31786;SDS011;18356;52.380;9.820;2023-02-10T10:04:17;59.90;;;28.97;;
31786;SDS011;18356;52.380;9.820;2023-02-10T10:06:44;63.20;;;31.33;;
31786;SDS011;18356;52.380;9.820;2023-02-10T10:14:19;61.53;;;30.33;;
31786;SDS011;18356;52.380;9.820;2023-02-10T10:16:53;57.97;;;31.10;;
31786;SDS011;18356;52.380;9.820;2023-02-10T10:21:56;57.13;;;29.90;;
31786;SDS011;18356;52.380;9.820;2023-02-10T10:24:52;53.90;;;28.77;;
31786;SDS011;18356;52.380;9.820;2023-02-10T10:35:05;59.80;;;31.00;;
31786;SDS011;18356;52.380;9.820;2023-02-10T10:37:37;65.03;;;30.50;;
31786;SDS011;18356;52.380;9.820;2023-02-10T10:40:04;61.80;;;30.93;;
31786;SDS011;18356;52.380;9.820;2023-02-10T10:42:44;60.37;;;30.40;;
31786;SDS011;18356;52.380;9.820;2023-02-10T10:45:16;55.80;;;28.50;;
31786;SDS011;18356;52.380;9.820;2023-02-10T10:47:45;64.57;;;31.20;;
31786;SDS011;18356;52.380;9.820;2023-02-10T10:50:15;56.40;;;30.23;;
31786;SDS011;18356;52.380;9.820;2023-02-10T10:52:43;62.60;;;32.37;;
31786;SDS011;18356;52.380;9.820;2023-02-10T10:55:17;67.80;;;31.30;;
31786;SDS011;18356;52.380;9.820;2023-02-10T10:57:45;75.30;;;32.10;;
31786;SDS011;18356;52.380;9.820;2023-02-10T11:00:18;67.53;;;32.83;;
31786;SDS011;18356;52.380;9.820;2023-02-10T11:02:56;65.03;;;31.57;;
31786;SDS011;18356;52.380;9.820;2023-02-10T11:05:22;63.40;;;31.13;;
31786;SDS011;18356;52.380;9.820;2023-02-10T11:07:50;67.23;;;31.80;;
31786;SDS011;18356;52.380;9.820;2023-02-10T11:10:22;65.30;;;30.23;;
31786;SDS011;18356;52.380;9.820;2023-02-10T11:12:48;65.87;;;30.87;;
31786;SDS011;18356;52.380;9.820;2023-02-10T11:15:32;65.43;;;30.87;;
31786;SDS011;18356;52.380;9.820;2023-02-10T11:18:00;65.47;;;31.87;;
31786;SDS011;18356;52.380;9.820;2023-02-10T11:20:31;71.03;;;32.43;;
31786;SDS011;18356;52.380;9.820;2023-02-10T11:27:50;66.93;;;32.33;;
31786;SDS011;18356;52.380;9.820;2023-02-10T11:30:23;75.70;;;33.43;;
31786;SDS011;18356;52.380;9.820;2023-02-10T11:32:49;66.60;;;32.07;;
31786;SDS011;18356;52.380;9.820;2023-02-10T11:35:15;72.20;;;31.60;;
31786;SDS011;18356;52.380;9.820;2023-02-10T11:37:42;67.20;;;31.93;;
31786;SDS011;18356;52.380;9.820;2023-02-10T11:40:25;60.43;;;31.23;;
31786;SDS011;18356;52.380;9.820;2023-02-10T11:42:52;65.00;;;32.07;;
31786;SDS011;18356;52.380;9.820;2023-02-10T11:45:21;70.20;;;34.03;;
31786;SDS011;18356;52.380;9.820;2023-02-10T11:47:47;69.63;;;33.03;;
31786;SDS011;18356;52.380;9.820;2023-02-10T11:50:25;74.27;;;33.77;;
31786;SDS011;18356;52.380;9.820;2023-02-10T11:52:51;71.83;;;34.33;;
31786;SDS011;18356;52.380;9.820;2023-02-10T11:55:18;71.27;;;34.57;;
31786;SDS011;18356;52.380;9.820;2023-02-10T11:57:55;69.33;;;34.23;;
31786;SDS011;18356;52.380;9.820;2023-02-10T12:00:44;70.73;;;34.00;;
31786;SDS011;18356;52.380;9.820;2023-02-10T12:06:09;74.33;;;33.83;;
31786;SDS011;18356;52.380;9.820;2023-02-10T12:11:05;74.50;;;35.37;;
31786;SDS011;18356;52.380;9.820;2023-02-10T12:16:15;71.60;;;34.50;;
31786;SDS011;18356;52.380;9.820;2023-02-10T12:18:55;68.20;;;31.67;;
31786;SDS011;18356;52.380;9.820;2023-02-10T12:21:30;70.63;;;35.17;;
31786;SDS011;18356;52.380;9.820;2023-02-10T12:27:00;74.83;;;33.17;;
31786;SDS011;18356;52.380;9.820;2023-02-10T12:32:01;65.90;;;32.30;;
31786;SDS011;18356;52.380;9.820;2023-02-10T12:34:53;71.37;;;34.27;;
31786;SDS011;18356;52.380;9.820;2023-02-10T12:50:46;67.23;;;32.77;;
31786;SDS011;18356;52.380;9.820;2023-02-10T12:53:17;58.97;;;30.53;;
31786;SDS011;18356;52.380;9.820;2023-02-10T12:55:55;60.70;;;31.23;;
31786;SDS011;18356;52.380;9.820;2023-02-10T12:58:27;59.87;;;30.00;;
31786;SDS011;18356;52.380;9.820;2023-02-10T13:03:28;58.97;;;30.17;;
31786;SDS011;18356;52.380;9.820;2023-02-10T13:05:59;62.00;;;31.50;;
31786;SDS011;18356;52.380;9.820;2023-02-10T13:11:41;60.33;;;30.77;;
31786;SDS011;18356;52.380;9.820;2023-02-10T13:14:11;56.30;;;29.43;;
31786;SDS011;18356;52.380;9.820;2023-02-10T13:16:39;59.33;;;30.97;;
31786;SDS011;18356;52.380;9.820;2023-02-10T13:21:47;60.90;;;30.57;;
31786;SDS011;18356;52.380;9.820;2023-02-10T13:32:01;58.30;;;30.03;;
31786;SDS011;18356;52.380;9.820;2023-02-10T13:34:31;57.10;;;29.97;;
31786;SDS011;18356;52.380;9.820;2023-02-10T13:39:25;59.17;;;30.90;;
31786;SDS011;18356;52.380;9.820;2023-02-10T13:44:38;59.77;;;28.97;;
31786;SDS011;18356;52.380;9.820;2023-02-10T13:49:33;56.90;;;31.10;;
31786;SDS011;18356;52.380;9.820;2023-02-10T13:52:01;58.00;;;29.27;;
31786;SDS011;18356;52.380;9.820;2023-02-10T13:54:30;61.53;;;29.93;;
31786;SDS011;18356;52.380;9.820;2023-02-10T13:56:56;58.53;;;30.77;;
31786;SDS011;18356;52.380;9.820;2023-02-10T13:59:36;56.40;;;31.47;;
31786;SDS011;18356;52.380;9.820;2023-02-10T14:02:11;53.27;;;29.80;;
31786;SDS011;18356;52.380;9.820;2023-02-10T14:04:45;56.63;;;29.00;;
31786;SDS011;18356;52.380;9.820;2023-02-10T14:12:38;52.37;;;27.83;;
31786;SDS011;18356;52.380;9.820;2023-02-10T14:15:17;53.70;;;28.57;;
31786;SDS011;18356;52.380;9.820;2023-02-10T14:17:52;55.27;;;28.77;;
31786;SDS011;18356;52.380;9.820;2023-02-10T14:20:22;54.83;;;27.97;;
31786;SDS011;18356;52.380;9.820;2023-02-10T14:22:49;54.53;;;26.47;;
31786;SDS011;18356;52.380;9.820;2023-02-10T14:25:16;60.17;;;28.00;;
31786;SDS011;18356;52.380;9.820;2023-02-10T14:27:49;55.10;;;28.10;;
31786;SDS011;18356;52.380;9.820;2023-02-10T14:30:20;50.43;;;26.27;;
31786;SDS011;18356;52.380;9.820;2023-02-10T14:32:47;51.10;;;26.00;;
31786;SDS011;18356;52.380;9.820;2023-02-10T14:35:17;47.57;;;26.00;;
31786;SDS011;18356;52.380;9.820;2023-02-10T14:37:53;47.30;;;26.07;;
31786;SDS011;18356;52.380;9.820;2023-02-10T14:40:21;48.37;;;22.50;;
31786;SDS011;18356;52.380;9.820;2023-02-10T14:42:47;48.93;;;24.57;;
31786;SDS011;18356;52.380;9.820;2023-02-10T14:45:23;50.53;;;24.20;;
31786;SDS011;18356;52.380;9.820;2023-02-10T14:47:51;46.57;;;22.87;;
31786;SDS011;18356;52.380;9.820;2023-02-10T14:50:26;41.23;;;22.60;;
31786;SDS011;18356;52.380;9.820;2023-02-10T14:52:52;49.43;;;24.17;;
31786;SDS011;18356;52.380;9.820;2023-02-10T14:55:31;49.27;;;22.60;;
31786;SDS011;18356;52.380;9.820;2023-02-10T14:58:03;45.87;;;23.77;;
31786;SDS011;18356;52.380;9.820;2023-02-10T15:00:30;43.80;;;23.20;;
31786;SDS011;18356;52.380;9.820;2023-02-10T15:02:58;44.63;;;23.53;;
31786;SDS011;18356;52.380;9.820;2023-02-10T15:05:24;49.03;;;23.83;;
31786;SDS011;18356;52.380;9.820;2023-02-10T15:07:53;45.60;;;23.20;;
31786;SDS011;18356;52.380;9.820;2023-02-10T15:12:56;48.70;;;23.23;;
31786;SDS011;18356;52.380;9.820;2023-02-10T15:15:34;41.93;;;21.70;;
31786;SDS011;18356;52.380;9.820;2023-02-10T15:18:02;43.13;;;21.43;;
31786;SDS011;18356;52.380;9.820;2023-02-10T15:20:31;41.17;;;21.37;;
31786;SDS011;18356;52.380;9.820;2023-02-10T15:27:58;39.97;;;19.60;;
31786;SDS011;18356;52.380;9.820;2023-02-10T15:30:27;39.63;;;20.43;;
31786;SDS011;18356;52.380;9.820;2023-02-10T15:35:11;35.23;;;20.13;;
31786;SDS011;18356;52.380;9.820;2023-02-10T15:37:38;34.43;;;17.43;;
31786;SDS011;18356;52.380;9.820;2023-02-10T15:40:24;39.60;;;18.53;;
31786;SDS011;18356;52.380;9.820;2023-02-10T15:45:22;41.80;;;18.73;;
31786;SDS011;18356;52.380;9.820;2023-02-10T15:47:59;39.37;;;19.83;;
31786;SDS011;18356;52.380;9.820;2023-02-10T15:50:27;38.90;;;19.00;;
31786;SDS011;18356;52.380;9.820;2023-02-10T15:52:53;39.50;;;18.50;;
31786;SDS011;18356;52.380;9.820;2023-02-10T15:58:15;40.27;;;18.77;;
31786;SDS011;18356;52.380;9.820;2023-02-10T16:00:42;35.03;;;18.90;;
31786;SDS011;18356;52.380;9.820;2023-02-10T16:03:10;38.83;;;18.30;;
31786;SDS011;18356;52.380;9.820;2023-02-10T16:05:36;38.20;;;17.97;;
31786;SDS011;18356;52.380;9.820;2023-02-10T16:08:09;35.70;;;18.67;;
31786;SDS011;18356;52.380;9.820;2023-02-10T16:10:35;35.10;;;17.23;;
31786;SDS011;18356;52.380;9.820;2023-02-10T16:13:02;38.60;;;18.37;;
31786;SDS011;18356;52.380;9.820;2023-02-10T16:15:28;36.77;;;18.07;;
31786;SDS011;18356;52.380;9.820;2023-02-10T16:17:55;32.67;;;17.40;;
31786;SDS011;18356;52.380;9.820;2023-02-10T16:20:23;38.40;;;17.40;;
31786;SDS011;18356;52.380;9.820;2023-02-10T16:22:49;34.77;;;16.70;;
31786;SDS011;18356;52.380;9.820;2023-02-10T16:25:16;39.67;;;15.53;;
31786;SDS011;18356;52.380;9.820;2023-02-10T16:27:43;37.73;;;15.77;;
31786;SDS011;18356;52.380;9.820;2023-02-10T16:30:18;33.30;;;15.47;;